sensor_id;sensor_type;location;lat;lon;timestamp;temperature;humidity
52127;DHT22;38120;53.176;6.614;2022-09-14T00:02:02;13.90;99.90
52127;DHT22;38120;53.176;6.614;2022-09-14T00:04:28;13.90;99.90
52127;DHT22;38120;53.176;6.614;2022-09-14T00:06:53;13.90;99.90
52127;DHT22;38120;53.176;6.614;2022-09-14T00:09:22;14.00;99.90
52127;DHT22;38120;53.176;6.614;2022-09-14T00:11:49;14.00;99.90
52127;DHT22;38120;53.176;6.614;2022-09-14T00:14:16;14.00;99.90
52127;DHT22;38120;53.176;6.614;2022-09-14T00:16:41;14.20;99.90
52127;DHT22;38120;53.176;6.614;2022-09-14T00:19:22;14.10;99.90
52127;DHT22;38120;53.176;6.614;2022-09-14T00:21:54;14.00;99.90
52127;DHT22;38120;53.176;6.614;2022-09-14T00:24:20;14.10;99.90
52127;DHT22;38120;53.176;6.614;2022-09-14T00:26:47;14.10;99.90
52127;DHT22;38120;53.176;6.614;2022-09-14T00:29:13;14.10;99.90
52127;DHT22;38120;53.176;6.614;2022-09-14T00:31:39;14.10;99.90
52127;DHT22;38120;53.176;6.614;2022-09-14T00:34:07;14.20;99.90
52127;DHT22;38120;53.176;6.614;2022-09-14T00:36:42;14.10;99.90
52127;DHT22;38120;53.176;6.614;2022-09-14T00:39:08;14.20;99.90
52127;DHT22;38120;53.176;6.614;2022-09-14T00:41:36;14.00;99.90
52127;DHT22;38120;53.176;6.614;2022-09-14T00:46:30;13.90;99.90
52127;DHT22;38120;53.176;6.614;2022-09-14T00:48:58;13.90;99.90
52127;DHT22;38120;53.176;6.614;2022-09-14T00:51:25;13.90;99.90
52127;DHT22;38120;53.176;6.614;2022-09-14T00:53:51;13.80;99.90
52127;DHT22;38120;53.176;6.614;2022-09-14T00:56:17;13.90;99.90
52127;DHT22;38120;53.176;6.614;2022-09-14T00:58:45;13.80;99.90
52127;DHT22;38120;53.176;6.614;2022-09-14T01:01:12;14.00;99.90
52127;DHT22;38120;53.176;6.614;2022-09-14T01:03:38;13.70;99.90
52127;DHT22;38120;53.176;6.614;2022-09-14T01:09:11;13.60;99.90
52127;DHT22;38120;53.176;6.614;2022-09-14T01:17:06;13.50;99.90
52127;DHT22;38120;53.176;6.614;2022-09-14T01:22:48;13.50;99.90
52127;DHT22;38120;53.176;6.614;2022-09-14T01:28:02;13.40;99.90
52127;DHT22;38120;53.176;6.614;2022-09-14T01:30:31;13.40;99.90
52127;DHT22;38120;53.176;6.614;2022-09-14T01:33:16;13.40;99.90
52127;DHT22;38120;53.176;6.614;2022-09-14T01:35:49;13.40;99.90
52127;DHT22;38120;53.176;6.614;2022-09-14T01:38:30;13.40;99.90
52127;DHT22;38120;53.176;6.614;2022-09-14T01:40:59;13.40;99.90
52127;DHT22;38120;53.176;6.614;2022-09-14T01:43:31;13.40;99.90
52127;DHT22;38120;53.176;6.614;2022-09-14T01:46:03;13.30;99.90
52127;DHT22;38120;53.176;6.614;2022-09-14T01:48:34;13.20;99.90
52127;DHT22;38120;53.176;6.614;2022-09-14T01:51:04;13.30;99.90
52127;DHT22;38120;53.176;6.614;2022-09-14T01:53:54;13.30;99.90
52127;DHT22;38120;53.176;6.614;2022-09-14T01:56:31;13.30;99.90
52127;DHT22;38120;53.176;6.614;2022-09-14T01:59:22;13.40;99.90
52127;DHT22;38120;53.176;6.614;2022-09-14T02:01:58;13.40;99.90
52127;DHT22;38120;53.176;6.614;2022-09-14T02:07:10;13.40;99.90
52127;DHT22;38120;53.176;6.614;2022-09-14T02:09:36;13.40;99.90
52127;DHT22;38120;53.176;6.614;2022-09-14T02:12:03;13.40;99.90
52127;DHT22;38120;53.176;6.614;2022-09-14T02:14:29;13.50;99.90
52127;DHT22;38120;53.176;6.614;2022-09-14T02:16:55;13.50;99.90
52127;DHT22;38120;53.176;6.614;2022-09-14T02:19:21;13.50;99.90
52127;DHT22;38120;53.176;6.614;2022-09-14T02:21:47;13.50;99.90
52127;DHT22;38120;53.176;6.614;2022-09-14T02:24:13;13.50;99.90
52127;DHT22;38120;53.176;6.614;2022-09-14T02:26:41;13.50;99.90
52127;DHT22;38120;53.176;6.614;2022-09-14T02:29:07;13.50;99.90
52127;DHT22;38120;53.176;6.614;2022-09-14T02:37:12;13.60;99.90
52127;DHT22;38120;53.176;6.614;2022-09-14T02:43:58;13.60;99.90
52127;DHT22;38120;53.176;6.614;2022-09-14T02:54:03;13.70;99.90
52127;DHT22;38120;53.176;6.614;2022-09-14T02:56:30;13.70;99.90
52127;DHT22;38120;53.176;6.614;2022-09-14T02:58:57;13.70;99.90
52127;DHT22;38120;53.176;6.614;2022-09-14T03:01:23;13.70;99.90
52127;DHT22;38120;53.176;6.614;2022-09-14T03:03:49;13.70;99.90
52127;DHT22;38120;53.176;6.614;2022-09-14T03:06:15;13.70;99.90
52127;DHT22;38120;53.176;6.614;2022-09-14T03:08:42;13.70;99.90
52127;DHT22;38120;53.176;6.614;2022-09-14T03:11:08;13.70;99.90
52127;DHT22;38120;53.176;6.614;2022-09-14T03:13:34;13.80;99.90
52127;DHT22;38120;53.176;6.614;2022-09-14T03:16:10;13.80;99.90
52127;DHT22;38120;53.176;6.614;2022-09-14T03:18:36;13.90;99.90
52127;DHT22;38120;53.176;6.614;2022-09-14T03:21:06;13.90;99.90
52127;DHT22;38120;53.176;6.614;2022-09-14T03:23:43;13.80;99.90
52127;DHT22;38120;53.176;6.614;2022-09-14T03:26:18;13.90;99.90
52127;DHT22;38120;53.176;6.614;2022-09-14T03:28:48;13.80;99.90
52127;DHT22;38120;53.176;6.614;2022-09-14T03:31:14;13.80;99.90
52127;DHT22;38120;53.176;6.614;2022-09-14T03:33:40;13.80;99.90
52127;DHT22;38120;53.176;6.614;2022-09-14T03:36:17;13.90;99.90
52127;DHT22;38120;53.176;6.614;2022-09-14T03:38:49;13.90;99.90
52127;DHT22;38120;53.176;6.614;2022-09-14T03:41:15;13.90;99.90
52127;DHT22;38120;53.176;6.614;2022-09-14T03:43:42;13.90;99.90
52127;DHT22;38120;53.176;6.614;2022-09-14T03:46:10;13.90;99.90
52127;DHT22;38120;53.176;6.614;2022-09-14T03:48:36;14.00;99.90
52127;DHT22;38120;53.176;6.614;2022-09-14T03:51:03;14.00;99.90
52127;DHT22;38120;53.176;6.614;2022-09-14T03:53:29;14.00;99.90
52127;DHT22;38120;53.176;6.614;2022-09-14T03:55:55;14.00;99.90
52127;DHT22;38120;53.176;6.614;2022-09-14T03:58:21;14.00;99.90
52127;DHT22;38120;53.176;6.614;2022-09-14T04:00:47;14.00;99.90
52127;DHT22;38120;53.176;6.614;2022-09-14T04:03:13;14.00;99.90
52127;DHT22;38120;53.176;6.614;2022-09-14T04:05:39;14.00;99.90
52127;DHT22;38120;53.176;6.614;2022-09-14T04:08:04;14.00;99.90
52127;DHT22;38120;53.176;6.614;2022-09-14T04:10:30;14.00;99.90
52127;DHT22;38120;53.176;6.614;2022-09-14T04:12:56;14.00;99.90
52127;DHT22;38120;53.176;6.614;2022-09-14T04:15:23;14.00;99.90
52127;DHT22;38120;53.176;6.614;2022-09-14T04:17:49;14.00;99.90
52127;DHT22;38120;53.176;6.614;2022-09-14T04:20:16;14.00;99.90
52127;DHT22;38120;53.176;6.614;2022-09-14T04:22:43;14.00;99.90
52127;DHT22;38120;53.176;6.614;2022-09-14T04:25:10;14.00;99.90
52127;DHT22;38120;53.176;6.614;2022-09-14T04:27:35;14.00;99.90
52127;DHT22;38120;53.176;6.614;2022-09-14T04:30:01;14.00;99.90
52127;DHT22;38120;53.176;6.614;2022-09-14T04:32:27;15.30;99.90
52127;DHT22;38120;53.176;6.614;2022-09-14T04:34:52;14.00;99.90
52127;DHT22;38120;53.176;6.614;2022-09-14T04:37:18;14.10;99.90
52127;DHT22;38120;53.176;6.614;2022-09-14T04:39:44;14.00;99.90
52127;DHT22;38120;53.176;6.614;2022-09-14T04:42:09;14.10;99.90
52127;DHT22;38120;53.176;6.614;2022-09-14T04:44:35;14.00;99.90
52127;DHT22;38120;53.176;6.614;2022-09-14T04:47:01;14.00;99.90
52127;DHT22;38120;53.176;6.614;2022-09-14T04:49:26;14.00;99.90
52127;DHT22;38120;53.176;6.614;2022-09-14T04:51:52;14.10;99.90
52127;DHT22;38120;53.176;6.614;2022-09-14T04:54:18;14.00;99.90
52127;DHT22;38120;53.176;6.614;2022-09-14T04:56:44;14.00;99.90
52127;DHT22;38120;53.176;6.614;2022-09-14T04:59:10;14.00;99.90
52127;DHT22;38120;53.176;6.614;2022-09-14T05:01:41;14.00;99.90
52127;DHT22;38120;53.176;6.614;2022-09-14T05:04:08;14.00;99.90
52127;DHT22;38120;53.176;6.614;2022-09-14T05:06:36;14.00;99.90
52127;DHT22;38120;53.176;6.614;2022-09-14T05:09:09;14.10;99.90
52127;DHT22;38120;53.176;6.614;2022-09-14T05:11:35;14.10;99.90
52127;DHT22;38120;53.176;6.614;2022-09-14T05:14:02;14.10;99.90
52127;DHT22;38120;53.176;6.614;2022-09-14T05:16:43;14.10;99.90
52127;DHT22;38120;53.176;6.614;2022-09-14T05:19:16;14.20;99.90
52127;DHT22;38120;53.176;6.614;2022-09-14T05:21:43;14.10;99.90
52127;DHT22;38120;53.176;6.614;2022-09-14T05:24:16;14.90;99.90
52127;DHT22;38120;53.176;6.614;2022-09-14T05:26:43;14.20;99.90
52127;DHT22;38120;53.176;6.614;2022-09-14T05:29:14;14.10;99.90
52127;DHT22;38120;53.176;6.614;2022-09-14T05:31:42;14.20;99.90
52127;DHT22;38120;53.176;6.614;2022-09-14T05:34:09;14.20;99.90
52127;DHT22;38120;53.176;6.614;2022-09-14T05:36:36;14.20;99.90
52127;DHT22;38120;53.176;6.614;2022-09-14T05:39:03;14.20;99.90
52127;DHT22;38120;53.176;6.614;2022-09-14T05:41:28;14.20;99.90
52127;DHT22;38120;53.176;6.614;2022-09-14T05:43:54;14.20;99.90
52127;DHT22;38120;53.176;6.614;2022-09-14T05:46:20;14.20;99.90
52127;DHT22;38120;53.176;6.614;2022-09-14T05:48:47;14.20;99.90
52127;DHT22;38120;53.176;6.614;2022-09-14T05:51:18;14.30;99.90
52127;DHT22;38120;53.176;6.614;2022-09-14T05:53:55;14.30;99.90
52127;DHT22;38120;53.176;6.614;2022-09-14T05:56:22;14.30;99.90
52127;DHT22;38120;53.176;6.614;2022-09-14T05:58:48;14.20;99.90
52127;DHT22;38120;53.176;6.614;2022-09-14T06:01:26;14.30;99.90
52127;DHT22;38120;53.176;6.614;2022-09-14T06:03:54;14.30;99.90
52127;DHT22;38120;53.176;6.614;2022-09-14T06:06:20;14.30;99.90
52127;DHT22;38120;53.176;6.614;2022-09-14T06:08:48;14.40;99.90
52127;DHT22;38120;53.176;6.614;2022-09-14T06:11:23;14.40;99.90
52127;DHT22;38120;53.176;6.614;2022-09-14T06:13:49;14.50;99.90
52127;DHT22;38120;53.176;6.614;2022-09-14T06:16:18;14.50;99.90
52127;DHT22;38120;53.176;6.614;2022-09-14T06:18:45;14.50;99.90
52127;DHT22;38120;53.176;6.614;2022-09-14T06:21:12;15.50;99.90
52127;DHT22;38120;53.176;6.614;2022-09-14T06:23:42;14.70;99.90
52127;DHT22;38120;53.176;6.614;2022-09-14T06:26:08;14.70;99.90
52127;DHT22;38120;53.176;6.614;2022-09-14T06:28:35;14.80;99.90
52127;DHT22;38120;53.176;6.614;2022-09-14T06:31:01;14.80;99.90
52127;DHT22;38120;53.176;6.614;2022-09-14T06:33:33;14.80;99.90
52127;DHT22;38120;53.176;6.614;2022-09-14T06:36:01;14.90;99.90
52127;DHT22;38120;53.176;6.614;2022-09-14T06:38:27;14.90;99.90
52127;DHT22;38120;53.176;6.614;2022-09-14T06:40:58;15.00;99.90
52127;DHT22;38120;53.176;6.614;2022-09-14T06:43:28;15.00;99.90
52127;DHT22;38120;53.176;6.614;2022-09-14T06:46:07;15.00;99.90
52127;DHT22;38120;53.176;6.614;2022-09-14T06:48:37;15.00;99.90
52127;DHT22;38120;53.176;6.614;2022-09-14T06:51:18;15.00;99.90
52127;DHT22;38120;53.176;6.614;2022-09-14T06:53:44;15.10;99.90
52127;DHT22;38120;53.176;6.614;2022-09-14T06:56:11;15.10;99.90
52127;DHT22;38120;53.176;6.614;2022-09-14T06:58:37;15.10;99.90
52127;DHT22;38120;53.176;6.614;2022-09-14T07:01:04;15.10;99.90
52127;DHT22;38120;53.176;6.614;2022-09-14T07:03:31;15.30;99.90
52127;DHT22;38120;53.176;6.614;2022-09-14T07:06:02;15.30;99.90
52127;DHT22;38120;53.176;6.614;2022-09-14T07:08:31;15.30;99.90
52127;DHT22;38120;53.176;6.614;2022-09-14T07:10:58;15.40;99.90
52127;DHT22;38120;53.176;6.614;2022-09-14T07:13:24;15.40;99.90
52127;DHT22;38120;53.176;6.614;2022-09-14T07:15:50;15.50;99.90
52127;DHT22;38120;53.176;6.614;2022-09-14T07:18:16;15.50;99.90
52127;DHT22;38120;53.176;6.614;2022-09-14T07:20:42;15.50;99.90
52127;DHT22;38120;53.176;6.614;2022-09-14T07:23:07;15.60;99.90
52127;DHT22;38120;53.176;6.614;2022-09-14T07:25:33;15.60;99.90
52127;DHT22;38120;53.176;6.614;2022-09-14T07:27:59;15.60;99.90
52127;DHT22;38120;53.176;6.614;2022-09-14T07:30:26;15.70;99.90
52127;DHT22;38120;53.176;6.614;2022-09-14T07:32:53;15.70;99.90
52127;DHT22;38120;53.176;6.614;2022-09-14T07:35:18;15.80;99.90
52127;DHT22;38120;53.176;6.614;2022-09-14T07:37:45;15.80;99.90
52127;DHT22;38120;53.176;6.614;2022-09-14T07:40:11;15.90;99.90
52127;DHT22;38120;53.176;6.614;2022-09-14T07:42:37;15.90;99.90
52127;DHT22;38120;53.176;6.614;2022-09-14T07:45:06;16.00;99.90
52127;DHT22;38120;53.176;6.614;2022-09-14T07:47:31;16.00;99.90
52127;DHT22;38120;53.176;6.614;2022-09-14T07:49:57;16.00;99.90
52127;DHT22;38120;53.176;6.614;2022-09-14T07:52:23;16.10;99.90
52127;DHT22;38120;53.176;6.614;2022-09-14T07:54:48;16.10;99.90
52127;DHT22;38120;53.176;6.614;2022-09-14T07:57:14;16.20;99.90
52127;DHT22;38120;53.176;6.614;2022-09-14T07:59:40;16.30;99.90
52127;DHT22;38120;53.176;6.614;2022-09-14T08:02:07;16.30;99.90
52127;DHT22;38120;53.176;6.614;2022-09-14T08:04:36;16.40;99.90
52127;DHT22;38120;53.176;6.614;2022-09-14T08:07:04;16.40;99.90
52127;DHT22;38120;53.176;6.614;2022-09-14T08:09:30;16.40;99.90
52127;DHT22;38120;53.176;6.614;2022-09-14T08:11:56;16.50;99.90
52127;DHT22;38120;53.176;6.614;2022-09-14T08:14:22;16.50;99.90
52127;DHT22;38120;53.176;6.614;2022-09-14T08:16:48;16.50;99.90
52127;DHT22;38120;53.176;6.614;2022-09-14T08:19:15;16.60;99.90
52127;DHT22;38120;53.176;6.614;2022-09-14T08:21:42;16.60;99.90
52127;DHT22;38120;53.176;6.614;2022-09-14T08:24:10;16.70;99.90
52127;DHT22;38120;53.176;6.614;2022-09-14T08:26:36;16.70;99.90
52127;DHT22;38120;53.176;6.614;2022-09-14T08:29:02;16.80;99.90
52127;DHT22;38120;53.176;6.614;2022-09-14T08:31:30;16.70;99.90
52127;DHT22;38120;53.176;6.614;2022-09-14T08:34:01;16.80;99.90
52127;DHT22;38120;53.176;6.614;2022-09-14T08:36:34;16.90;99.90
52127;DHT22;38120;53.176;6.614;2022-09-14T08:38:59;17.00;99.90
52127;DHT22;38120;53.176;6.614;2022-09-14T08:52:38;17.20;99.90
52127;DHT22;38120;53.176;6.614;2022-09-14T08:58:07;17.40;99.90
52127;DHT22;38120;53.176;6.614;2022-09-14T09:00:46;17.50;99.90
52127;DHT22;38120;53.176;6.614;2022-09-14T09:03:25;17.50;99.90
52127;DHT22;38120;53.176;6.614;2022-09-14T09:09:32;17.70;99.90
52127;DHT22;38120;53.176;6.614;2022-09-14T09:11:43;17.80;99.90
52127;DHT22;38120;53.176;6.614;2022-09-14T09:14:25;17.80;99.90
52127;DHT22;38120;53.176;6.614;2022-09-14T09:16:54;17.90;99.90
52127;DHT22;38120;53.176;6.614;2022-09-14T09:19:52;17.90;99.90
52127;DHT22;38120;53.176;6.614;2022-09-14T09:22:21;17.90;99.90
52127;DHT22;38120;53.176;6.614;2022-09-14T09:24:52;17.90;99.90
52127;DHT22;38120;53.176;6.614;2022-09-14T09:27:18;17.90;99.90
52127;DHT22;38120;53.176;6.614;2022-09-14T09:29:44;17.90;99.90
52127;DHT22;38120;53.176;6.614;2022-09-14T09:32:21;18.00;99.90
52127;DHT22;38120;53.176;6.614;2022-09-14T09:34:47;18.10;99.90
52127;DHT22;38120;53.176;6.614;2022-09-14T09:37:15;18.20;99.90
52127;DHT22;38120;53.176;6.614;2022-09-14T09:39:42;18.30;99.90
52127;DHT22;38120;53.176;6.614;2022-09-14T09:42:27;18.40;99.90
52127;DHT22;38120;53.176;6.614;2022-09-14T09:44:57;18.70;99.90
52127;DHT22;38120;53.176;6.614;2022-09-14T09:47:41;18.80;99.90
52127;DHT22;38120;53.176;6.614;2022-09-14T09:52:54;18.80;99.90
52127;DHT22;38120;53.176;6.614;2022-09-14T09:55:24;18.90;99.90
52127;DHT22;38120;53.176;6.614;2022-09-14T09:57:52;18.90;99.90
52127;DHT22;38120;53.176;6.614;2022-09-14T10:00:27;18.80;99.90
52127;DHT22;38120;53.176;6.614;2022-09-14T10:02:54;18.70;99.90
52127;DHT22;38120;53.176;6.614;2022-09-14T10:05:24;18.70;99.90
52127;DHT22;38120;53.176;6.614;2022-09-14T10:07:57;18.60;99.90
52127;DHT22;38120;53.176;6.614;2022-09-14T10:13:12;18.60;99.90
52127;DHT22;38120;53.176;6.614;2022-09-14T10:15:40;18.70;99.90
52127;DHT22;38120;53.176;6.614;2022-09-14T10:18:17;18.70;99.90
52127;DHT22;38120;53.176;6.614;2022-09-14T10:25:50;19.00;99.90
52127;DHT22;38120;53.176;6.614;2022-09-14T10:28:22;19.00;99.90
52127;DHT22;38120;53.176;6.614;2022-09-14T10:30:57;19.10;99.90
52127;DHT22;38120;53.176;6.614;2022-09-14T10:33:25;19.10;99.90
52127;DHT22;38120;53.176;6.614;2022-09-14T10:38:36;19.00;99.90
52127;DHT22;38120;53.176;6.614;2022-09-14T10:46:28;19.00;99.90
52127;DHT22;38120;53.176;6.614;2022-09-14T10:51:51;19.10;99.90
52127;DHT22;38120;53.176;6.614;2022-09-14T11:02:45;19.00;99.90
52127;DHT22;38120;53.176;6.614;2022-09-14T11:05:23;18.90;99.90
52127;DHT22;38120;53.176;6.614;2022-09-14T11:07:51;19.00;99.90
52127;DHT22;38120;53.176;6.614;2022-09-14T11:10:36;19.10;99.90
52127;DHT22;38120;53.176;6.614;2022-09-14T11:26:38;19.70;99.90
52127;DHT22;38120;53.176;6.614;2022-09-14T11:29:36;19.90;99.90
52127;DHT22;38120;53.176;6.614;2022-09-14T11:35:14;20.00;99.90
52127;DHT22;38120;53.176;6.614;2022-09-14T11:37:58;19.70;99.90
52127;DHT22;38120;53.176;6.614;2022-09-14T11:40:34;19.60;99.90
52127;DHT22;38120;53.176;6.614;2022-09-14T11:45:52;19.70;99.90
52127;DHT22;38120;53.176;6.614;2022-09-14T11:48:27;19.70;99.90
52127;DHT22;38120;53.176;6.614;2022-09-14T11:51:15;20.20;99.90
52127;DHT22;38120;53.176;6.614;2022-09-14T11:53:42;20.20;99.90
52127;DHT22;38120;53.176;6.614;2022-09-14T11:56:21;20.60;99.90
52127;DHT22;38120;53.176;6.614;2022-09-14T12:10:18;20.60;99.90
52127;DHT22;38120;53.176;6.614;2022-09-14T12:12:54;20.70;99.90
52127;DHT22;38120;53.176;6.614;2022-09-14T12:20:33;20.80;99.90
52127;DHT22;38120;53.176;6.614;2022-09-14T12:36:11;20.10;99.90
52127;DHT22;38120;53.176;6.614;2022-09-14T12:59:20;20.10;99.90
52127;DHT22;38120;53.176;6.614;2022-09-14T13:04:44;19.90;99.90
52127;DHT22;38120;53.176;6.614;2022-09-14T13:07:17;20.10;99.90
52127;DHT22;38120;53.176;6.614;2022-09-14T13:10:04;20.00;99.90
52127;DHT22;38120;53.176;6.614;2022-09-14T13:12:45;20.10;99.90
52127;DHT22;38120;53.176;6.614;2022-09-14T13:15:20;20.00;99.90
52127;DHT22;38120;53.176;6.614;2022-09-14T13:18:00;19.90;99.90
52127;DHT22;38120;53.176;6.614;2022-09-14T13:20:26;19.90;99.90
52127;DHT22;38120;53.176;6.614;2022-09-14T13:22:52;19.60;99.90
52127;DHT22;38120;53.176;6.614;2022-09-14T13:25:44;19.50;99.90
52127;DHT22;38120;53.176;6.614;2022-09-14T13:28:14;19.40;99.90
52127;DHT22;38120;53.176;6.614;2022-09-14T13:30:41;19.40;99.90
52127;DHT22;38120;53.176;6.614;2022-09-14T13:33:16;19.40;99.90
52127;DHT22;38120;53.176;6.614;2022-09-14T13:35:52;19.40;99.90
52127;DHT22;38120;53.176;6.614;2022-09-14T13:38:35;19.50;99.90
52127;DHT22;38120;53.176;6.614;2022-09-14T13:41:10;19.60;99.90
52127;DHT22;38120;53.176;6.614;2022-09-14T13:43:36;19.40;99.90
52127;DHT22;38120;53.176;6.614;2022-09-14T13:46:04;19.40;99.90
52127;DHT22;38120;53.176;6.614;2022-09-14T13:48:32;19.50;99.90
52127;DHT22;38120;53.176;6.614;2022-09-14T13:51:00;19.60;99.90
52127;DHT22;38120;53.176;6.614;2022-09-14T13:53:42;19.70;99.90
52127;DHT22;38120;53.176;6.614;2022-09-14T13:56:31;19.30;99.90
52127;DHT22;38120;53.176;6.614;2022-09-14T13:59:15;20.20;99.90
52127;DHT22;38120;53.176;6.614;2022-09-14T14:04:25;19.80;99.90
52127;DHT22;38120;53.176;6.614;2022-09-14T14:09:47;20.00;99.90
52127;DHT22;38120;53.176;6.614;2022-09-14T14:12:33;20.20;99.90
52127;DHT22;38120;53.176;6.614;2022-09-14T14:17:38;20.60;99.90
52127;DHT22;38120;53.176;6.614;2022-09-14T14:25:40;20.60;99.90
52127;DHT22;38120;53.176;6.614;2022-09-14T14:28:15;20.80;99.90
52127;DHT22;38120;53.176;6.614;2022-09-14T14:30:41;20.90;99.90
52127;DHT22;38120;53.176;6.614;2022-09-14T14:33:11;20.50;99.90
52127;DHT22;38120;53.176;6.614;2022-09-14T14:35:38;20.20;99.90
52127;DHT22;38120;53.176;6.614;2022-09-14T14:38:04;20.10;99.90
52127;DHT22;38120;53.176;6.614;2022-09-14T14:40:31;20.20;99.90
52127;DHT22;38120;53.176;6.614;2022-09-14T14:43:00;20.10;99.90
52127;DHT22;38120;53.176;6.614;2022-09-14T14:45:30;20.10;99.90
52127;DHT22;38120;53.176;6.614;2022-09-14T14:47:58;20.20;99.90
52127;DHT22;38120;53.176;6.614;2022-09-14T14:52:49;20.10;99.90
52127;DHT22;38120;53.176;6.614;2022-09-14T14:55:16;20.10;99.90
52127;DHT22;38120;53.176;6.614;2022-09-14T14:57:42;19.90;99.90
52127;DHT22;38120;53.176;6.614;2022-09-14T15:00:17;19.80;99.90
52127;DHT22;38120;53.176;6.614;2022-09-14T15:02:43;19.80;99.90
52127;DHT22;38120;53.176;6.614;2022-09-14T15:05:09;19.80;99.90
52127;DHT22;38120;53.176;6.614;2022-09-14T15:07:35;19.80;99.90
52127;DHT22;38120;53.176;6.614;2022-09-14T15:10:01;20.00;99.90
52127;DHT22;38120;53.176;6.614;2022-09-14T15:12:27;19.90;99.90
52127;DHT22;38120;53.176;6.614;2022-09-14T15:14:53;20.00;99.90
52127;DHT22;38120;53.176;6.614;2022-09-14T15:17:18;20.00;99.90
52127;DHT22;38120;53.176;6.614;2022-09-14T15:19:48;20.00;99.90
52127;DHT22;38120;53.176;6.614;2022-09-14T15:22:17;20.00;99.90
52127;DHT22;38120;53.176;6.614;2022-09-14T15:24:43;20.10;99.90
52127;DHT22;38120;53.176;6.614;2022-09-14T15:27:09;20.20;99.90
52127;DHT22;38120;53.176;6.614;2022-09-14T15:29:35;20.10;99.90
52127;DHT22;38120;53.176;6.614;2022-09-14T15:32:01;19.80;99.90
52127;DHT22;38120;53.176;6.614;2022-09-14T15:34:27;19.60;99.90
52127;DHT22;38120;53.176;6.614;2022-09-14T15:36:53;19.60;99.90
52127;DHT22;38120;53.176;6.614;2022-09-14T15:39:28;19.50;99.90
52127;DHT22;38120;53.176;6.614;2022-09-14T15:41:55;19.30;99.90
52127;DHT22;38120;53.176;6.614;2022-09-14T15:44:21;19.30;99.90
52127;DHT22;38120;53.176;6.614;2022-09-14T15:46:47;19.30;99.90
52127;DHT22;38120;53.176;6.614;2022-09-14T15:49:14;19.20;99.90
52127;DHT22;38120;53.176;6.614;2022-09-14T15:51:43;19.10;99.90
52127;DHT22;38120;53.176;6.614;2022-09-14T15:54:09;19.00;99.90
52127;DHT22;38120;53.176;6.614;2022-09-14T15:56:35;19.10;99.90
52127;DHT22;38120;53.176;6.614;2022-09-14T15:59:01;19.10;99.90
52127;DHT22;38120;53.176;6.614;2022-09-14T16:01:27;19.20;99.90
52127;DHT22;38120;53.176;6.614;2022-09-14T16:04:02;19.20;99.90
52127;DHT22;38120;53.176;6.614;2022-09-14T16:06:28;19.40;99.90
52127;DHT22;38120;53.176;6.614;2022-09-14T16:08:54;19.50;99.90
52127;DHT22;38120;53.176;6.614;2022-09-14T16:11:21;19.50;99.90
52127;DHT22;38120;53.176;6.614;2022-09-14T16:13:48;19.50;99.90
52127;DHT22;38120;53.176;6.614;2022-09-14T16:16:15;19.60;99.90
52127;DHT22;38120;53.176;6.614;2022-09-14T16:18:42;19.70;99.90
52127;DHT22;38120;53.176;6.614;2022-09-14T16:21:11;19.50;99.90
52127;DHT22;38120;53.176;6.614;2022-09-14T16:23:40;19.50;99.90
52127;DHT22;38120;53.176;6.614;2022-09-14T16:26:23;19.30;99.90
52127;DHT22;38120;53.176;6.614;2022-09-14T16:28:51;19.20;99.90
52127;DHT22;38120;53.176;6.614;2022-09-14T16:31:19;19.00;99.90
52127;DHT22;38120;53.176;6.614;2022-09-14T16:33:48;19.00;99.90
52127;DHT22;38120;53.176;6.614;2022-09-14T16:36:17;18.80;99.90
52127;DHT22;38120;53.176;6.614;2022-09-14T16:38:43;18.70;99.90
52127;DHT22;38120;53.176;6.614;2022-09-14T16:41:10;18.60;99.90
52127;DHT22;38120;53.176;6.614;2022-09-14T16:43:36;18.50;99.90
52127;DHT22;38120;53.176;6.614;2022-09-14T16:46:10;18.50;99.90
52127;DHT22;38120;53.176;6.614;2022-09-14T16:48:46;18.40;99.90
52127;DHT22;38120;53.176;6.614;2022-09-14T16:51:16;18.40;99.90
52127;DHT22;38120;53.176;6.614;2022-09-14T16:53:44;18.40;99.90
52127;DHT22;38120;53.176;6.614;2022-09-14T16:56:18;18.30;99.90
52127;DHT22;38120;53.176;6.614;2022-09-14T16:58:52;18.30;99.90
52127;DHT22;38120;53.176;6.614;2022-09-14T17:01:26;18.20;99.90
52127;DHT22;38120;53.176;6.614;2022-09-14T17:03:58;18.20;99.90
52127;DHT22;38120;53.176;6.614;2022-09-14T17:06:26;18.10;99.90
52127;DHT22;38120;53.176;6.614;2022-09-14T17:08:55;18.10;99.90
52127;DHT22;38120;53.176;6.614;2022-09-14T17:11:23;18.00;99.90
52127;DHT22;38120;53.176;6.614;2022-09-14T17:13:49;18.00;99.90
52127;DHT22;38120;53.176;6.614;2022-09-14T17:16:17;17.90;99.90
52127;DHT22;38120;53.176;6.614;2022-09-14T17:18:44;17.90;99.90
52127;DHT22;38120;53.176;6.614;2022-09-14T17:21:18;17.90;99.90
52127;DHT22;38120;53.176;6.614;2022-09-14T17:23:44;17.80;99.90
52127;DHT22;38120;53.176;6.614;2022-09-14T17:26:12;17.80;99.90
52127;DHT22;38120;53.176;6.614;2022-09-14T17:28:39;17.80;99.90
52127;DHT22;38120;53.176;6.614;2022-09-14T17:31:08;17.80;99.90
52127;DHT22;38120;53.176;6.614;2022-09-14T17:33:34;17.80;99.90
52127;DHT22;38120;53.176;6.614;2022-09-14T17:36:02;17.70;99.90
52127;DHT22;38120;53.176;6.614;2022-09-14T17:38:33;17.70;99.90
52127;DHT22;38120;53.176;6.614;2022-09-14T17:41:04;17.70;99.90
52127;DHT22;38120;53.176;6.614;2022-09-14T17:43:34;17.70;99.90
52127;DHT22;38120;53.176;6.614;2022-09-14T17:46:01;17.60;99.90
52127;DHT22;38120;53.176;6.614;2022-09-14T17:48:34;17.50;99.90
52127;DHT22;38120;53.176;6.614;2022-09-14T17:51:08;17.50;99.90
52127;DHT22;38120;53.176;6.614;2022-09-14T17:53:39;17.50;99.90
52127;DHT22;38120;53.176;6.614;2022-09-14T17:56:08;17.40;99.90
52127;DHT22;38120;53.176;6.614;2022-09-14T17:58:35;17.30;99.90
52127;DHT22;38120;53.176;6.614;2022-09-14T18:01:10;17.30;99.90
52127;DHT22;38120;53.176;6.614;2022-09-14T18:03:37;17.20;99.90
52127;DHT22;38120;53.176;6.614;2022-09-14T18:06:08;17.10;99.90
52127;DHT22;38120;53.176;6.614;2022-09-14T18:08:35;17.10;99.90
52127;DHT22;38120;53.176;6.614;2022-09-14T18:11:05;17.00;99.90
52127;DHT22;38120;53.176;6.614;2022-09-14T18:13:31;17.00;99.90
52127;DHT22;38120;53.176;6.614;2022-09-14T18:15:57;16.90;99.90
52127;DHT22;38120;53.176;6.614;2022-09-14T18:18:23;16.80;99.90
52127;DHT22;38120;53.176;6.614;2022-09-14T18:20:49;16.70;99.90
52127;DHT22;38120;53.176;6.614;2022-09-14T18:23:16;16.60;99.90
52127;DHT22;38120;53.176;6.614;2022-09-14T18:25:42;16.50;99.90
52127;DHT22;38120;53.176;6.614;2022-09-14T18:28:08;16.50;99.90
52127;DHT22;38120;53.176;6.614;2022-09-14T18:30:34;16.40;99.90
52127;DHT22;38120;53.176;6.614;2022-09-14T18:33:00;16.40;99.90
52127;DHT22;38120;53.176;6.614;2022-09-14T18:35:25;16.30;99.90
52127;DHT22;38120;53.176;6.614;2022-09-14T18:37:52;16.30;99.90